Time;durP1;ratioP1;P1;durP2;ratioP2;P2;SDS_P1;SDS_P2;PMS_P1;PMS_P2;Temp;Humidity;BMP_temperature;BMP_pressure;BME280_temperature;BME280_humidity;BME280_pressure;Samples;Min_cycle;Max_cycle;Signal;HPM_P1;HPM_P2
2023/09/16 00:00:06;;;;;;;;;;;;;;;16.04;92.62;101454.44;4956587;28;19918;-73
2023/09/16 00:02:31;;;;;;;;;;;;;;;16.03;92.86;101462.50;4972863;28;19925;-73
2023/09/16 00:04:57;;;;;;;;;;;;;;;16.02;92.88;101461.63;4976287;28;19918;-73
2023/09/16 00:07:23;;;;;;;;;;;;;;;16.01;93.01;101465.22;4975525;28;20213;-73
2023/09/16 00:09:48;;;;;;;;;;;;;;;15.98;92.89;101465.38;4975387;28;19989;-73
2023/09/16 00:12:13;;;;;;;;;;;;;;;15.94;93.12;101466.47;4976285;28;19917;-73
2023/09/16 00:14:38;;;;;;;;;;;;;;;15.92;93.19;101455.97;4975418;28;19918;-73
2023/09/16 00:17:04;;;;;;;;;;;;;;;15.92;93.27;101463.06;4974872;28;19918;-73
2023/09/16 00:19:29;;;;;;;;;;;;;;;15.92;93.47;101457.78;4967043;28;20149;-73
2023/09/16 00:21:55;;;;;;;;;;;;;;;15.91;93.38;101456.91;4957886;28;19918;-73
2023/09/16 00:24:20;;;;;;;;;;;;;;;15.88;93.30;101454.44;4956759;29;20276;-73
2023/09/16 00:26:46;;;;;;;;;;;;;;;15.87;93.67;101457.16;4964852;28;19985;-73
2023/09/16 00:29:11;;;;;;;;;;;;;;;15.86;93.76;101456.31;4975737;28;19930;-73
2023/09/16 00:31:36;;;;;;;;;;;;;;;15.85;93.89;101459.88;4966120;28;19918;-73
2023/09/16 00:34:02;;;;;;;;;;;;;;;15.84;93.94;101458.16;4956561;28;20328;-73
2023/09/16 00:36:28;;;;;;;;;;;;;;;15.83;93.75;101456.47;4958526;28;20149;-73
2023/09/16 00:38:53;;;;;;;;;;;;;;;15.82;93.90;101457.41;4975311;28;20000;-73
2023/09/16 00:41:18;;;;;;;;;;;;;;;15.82;93.93;101457.41;4975013;28;19940;-73
2023/09/16 00:43:44;;;;;;;;;;;;;;;15.81;93.93;101457.47;4975184;28;19957;-73
2023/09/16 00:46:09;;;;;;;;;;;;;;;15.78;93.84;101452.38;4975139;28;20129;-73
2023/09/16 00:48:35;;;;;;;;;;;;;;;15.76;94.17;101470.94;4974943;28;20225;-73
2023/09/16 00:51:01;;;;;;;;;;;;;;;15.73;94.28;101458.72;4971883;28;20213;-73
2023/09/16 00:53:26;;;;;;;;;;;;;;;15.71;94.57;101457.91;4971219;28;20004;-73
2023/09/16 00:55:52;;;;;;;;;;;;;;;15.69;94.79;101459.78;4974555;28;19937;-73
2023/09/16 00:58:17;;;;;;;;;;;;;;;15.69;94.87;101458.94;4975212;28;19918;-73
2023/09/16 01:00:44;;;;;;;;;;;;;;;15.69;94.79;101459.78;4961026;28;19937;-73
2023/09/16 01:03:09;;;;;;;;;;;;;;;15.70;94.71;101458.03;4960074;28;19937;-73
2023/09/16 01:05:35;;;;;;;;;;;;;;;15.69;94.79;101458.94;4959525;28;19965;-73
2023/09/16 01:08:00;;;;;;;;;;;;;;;15.69;94.61;101464.22;4967704;28;19922;-73
2023/09/16 01:10:25;;;;;;;;;;;;;;;15.68;94.92;101457.22;4978137;28;20252;-73
2023/09/16 01:12:52;;;;;;;;;;;;;;;15.66;94.86;101449.41;4977441;28;19921;-73
2023/09/16 01:15:20;;;;;;;;;;;;;;;15.66;95.02;101452.06;4978745;28;20112;-73
2023/09/16 01:17:54;;;;;;;;;;;;;;;15.67;95.00;101447.63;4977141;28;20201;-73
2023/09/16 01:20:21;;;;;;;;;;;;;;;15.66;94.90;101436.22;4978502;28;20016;-73
2023/09/16 01:22:47;;;;;;;;;;;;;;;15.65;94.96;101445.06;4977254;28;19914;-73
2023/09/16 01:25:13;;;;;;;;;;;;;;;15.64;95.01;101440.69;4967041;28;20179;-73
2023/09/16 01:27:38;;;;;;;;;;;;;;;15.63;95.07;101432.88;4964277;28;20086;-73
2023/09/16 01:30:05;;;;;;;;;;;;;;;15.63;94.91;101441.66;4977935;28;19922;-73
2023/09/16 01:32:41;;;;;;;;;;;;;;;15.62;94.92;101437.28;4977953;28;19914;-73
2023/09/16 01:35:08;;;;;;;;;;;;;;;15.58;94.85;101437.53;4978097;28;19924;-73
2023/09/16 01:37:33;;;;;;;;;;;;;;;15.55;94.99;101434.13;4977910;28;20008;-73
2023/09/16 01:40:07;;;;;;;;;;;;;;;15.55;95.07;101435.91;4977986;28;20201;-73
2023/09/16 01:42:33;;;;;;;;;;;;;;;15.53;95.06;101440.41;4977206;28;19949;-73
2023/09/16 01:45:00;;;;;;;;;;;;;;;15.51;95.04;101435.19;4977960;28;19957;-73
2023/09/16 01:47:25;;;;;;;;;;;;;;;15.49;94.97;101431.78;4977179;28;19981;-73
2023/09/16 01:49:50;;;;;;;;;;;;;;;15.46;95.37;101433.75;4977093;28;19917;-73
2023/09/16 01:52:16;;;;;;;;;;;;;;;15.43;95.47;101436.56;4978122;28;19914;-73
2023/09/16 01:54:42;;;;;;;;;;;;;;;15.43;95.66;101432.13;4977168;28;19924;-73
2023/09/16 01:57:07;;;;;;;;;;;;;;;15.44;95.67;101436.44;4977930;28;19921;-73
2023/09/16 01:59:32;;;;;;;;;;;;;;;15.45;95.60;101434.69;4977533;28;20219;-73
2023/09/16 02:01:57;;;;;;;;;;;;;;;15.46;95.40;101429.34;4976987;28;19945;-73
2023/09/16 02:04:23;;;;;;;;;;;;;;;15.45;95.42;101427.63;4977568;28;19910;-73
2023/09/16 02:06:48;;;;;;;;;;;;;;;15.44;95.67;101423.25;4977092;28;19973;-73
2023/09/16 02:09:13;;;;;;;;;;;;;;;15.44;95.38;101430.31;4976828;28;19922;-73
2023/09/16 02:11:39;;;;;;;;;;;;;;;15.44;95.31;101427.69;4975778;28;19914;-73
2023/09/16 02:14:04;;;;;;;;;;;;;;;15.41;95.34;101427.84;4977850;28;19909;-73
2023/09/16 02:16:30;;;;;;;;;;;;;;;15.41;95.53;101427.84;4976758;28;19940;-73
2023/09/16 02:18:55;;;;;;;;;;;;;;;15.40;95.49;101427.00;4977058;28;20334;-73
2023/09/16 02:21:22;;;;;;;;;;;;;;;15.41;95.30;101434.00;4977551;28;19921;-73
2023/09/16 02:23:47;;;;;;;;;;;;;;;15.40;95.53;101434.06;4968966;28;20032;-73
2023/09/16 02:26:12;;;;;;;;;;;;;;;15.39;95.30;101429.72;4959013;28;20153;-73
2023/09/16 02:28:40;;;;;;;;;;;;;;;15.35;95.25;101431.66;4964187;28;19949;-73
2023/09/16 02:31:05;;;;;;;;;;;;;;;15.32;95.27;101429.19;4977513;28;19910;-73
2023/09/16 02:33:30;;;;;;;;;;;;;;;15.28;95.37;101428.50;4976895;28;20016;-73
2023/09/16 02:35:55;;;;;;;;;;;;;;;15.25;95.38;101427.78;4976724;28;19914;-73
2023/09/16 02:38:21;;;;;;;;;;;;;;;15.22;95.73;101431.41;4976390;28;20065;-73
2023/09/16 02:40:46;;;;;;;;;;;;;;;15.21;95.96;101427.09;4976083;28;20064;-73
2023/09/16 02:43:11;;;;;;;;;;;;;;;15.21;95.99;101428.84;4976548;28;19965;-73
2023/09/16 02:45:43;;;;;;;;;;;;;;;15.21;96.09;101434.13;4976554;28;19917;-73
2023/09/16 02:48:08;;;;;;;;;;;;;;;15.20;96.62;101428.00;4976302;28;20232;-73
2023/09/16 02:50:34;;;;;;;;;;;;;;;15.22;96.76;101431.41;4976816;28;19918;-74
2023/09/16 02:52:59;;;;;;;;;;;;;;;15.24;96.60;101434.00;4976340;28;20176;-74
2023/09/16 02:55:25;;;;;;;;;;;;;;;15.24;96.40;101420.78;4976562;28;19918;-74
2023/09/16 02:57:50;;;;;;;;;;;;;;;15.25;96.62;101422.50;4976340;28;19937;-74
2023/09/16 03:00:15;;;;;;;;;;;;;;;15.23;96.46;101421.75;4976379;28;20067;-74
2023/09/16 03:02:40;;;;;;;;;;;;;;;15.23;96.51;101422.59;4976357;28;20408;-74
2023/09/16 03:05:06;;;;;;;;;;;;;;;15.22;96.57;101420.03;4958967;28;19917;-74
2023/09/16 03:07:31;;;;;;;;;;;;;;;15.22;96.71;101417.38;4975705;28;19996;-74
2023/09/16 03:09:56;;;;;;;;;;;;;;;15.22;97.02;101420.03;4964994;28;19926;-74
2023/09/16 03:12:24;;;;;;;;;;;;;;;15.20;96.98;101414.81;4957798;28;19929;-74
2023/09/16 03:14:49;;;;;;;;;;;;;;;15.21;96.94;101419.19;4966948;28;19917;-74
2023/09/16 03:17:14;;;;;;;;;;;;;;;15.21;97.08;101411.25;4976224;28;19917;-74
2023/09/16 03:19:40;;;;;;;;;;;;;;;15.19;97.01;101413.13;4975803;28;19917;-74
2023/09/16 03:22:05;;;;;;;;;;;;;;;15.16;97.07;101413.28;4975933;28;19913;-74
2023/09/16 03:24:31;;;;;;;;;;;;;;;15.12;97.21;101404.66;4974945;28;19957;-74
2023/09/16 03:26:56;;;;;;;;;;;;;;;15.06;97.03;101409.38;4975910;28;20237;-74
2023/09/16 03:29:21;;;;;;;;;;;;;;;15.03;97.69;101406.94;4975741;28;19957;-74
2023/09/16 03:31:46;;;;;;;;;;;;;;;15.03;97.83;101406.94;4973645;28;19924;-74
2023/09/16 03:34:12;;;;;;;;;;;;;;;15.02;98.11;101407.84;4957509;28;20311;-74
2023/09/16 03:36:37;;;;;;;;;;;;;;;15.02;98.27;101406.03;4958231;28;19925;-74
2023/09/16 03:39:03;;;;;;;;;;;;;;;15.02;98.09;101398.13;4974629;28;19918;-74
2023/09/16 03:41:28;;;;;;;;;;;;;;;15.01;97.98;101399.09;4957108;28;19925;-74
2023/09/16 03:43:53;;;;;;;;;;;;;;;14.98;97.97;101404.50;4956500;28;20208;-74
2023/09/16 03:46:19;;;;;;;;;;;;;;;14.97;98.00;101400.16;4957454;28;20217;-74
2023/09/16 03:48:44;;;;;;;;;;;;;;;14.94;98.28;101402.97;4956525;28;20232;-74
2023/09/16 03:51:09;;;;;;;;;;;;;;;14.93;98.43;101396.81;4972261;28;19965;-74
2023/09/16 03:53:35;;;;;;;;;;;;;;;14.92;98.38;101395.13;4975582;28;19918;-74
2023/09/16 03:56:03;;;;;;;;;;;;;;;14.91;98.55;101393.41;4975302;28;19984;-74
2023/09/16 03:58:28;;;;;;;;;;;;;;;14.89;98.43;101397.91;4975702;28;19924;-74
2023/09/16 04:00:53;;;;;;;;;;;;;;;14.85;98.56;101395.50;4975346;28;19984;-74
2023/09/16 04:03:19;;;;;;;;;;;;;;;14.82;98.48;101391.22;4975606;28;19922;-74
2023/09/16 04:05:44;;;;;;;;;;;;;;;14.81;98.82;101394.81;4975080;28;19996;-74
2023/09/16 04:08:10;;;;;;;;;;;;;;;14.80;98.65;101393.09;4975559;28;19914;-74
2023/09/16 04:10:35;;;;;;;;;;;;;;;14.77;98.50;101383.56;4975271;28;19906;-74
2023/09/16 04:13:00;;;;;;;;;;;;;;;14.73;98.61;101392.53;4975480;28;19917;-74
2023/09/16 04:15:25;;;;;;;;;;;;;;;14.69;98.95;101385.72;4975655;28;19925;-74
2023/09/16 04:17:51;;;;;;;;;;;;;;;14.66;98.78;101385.00;4975166;28;20183;-74
2023/09/16 04:20:19;;;;;;;;;;;;;;;14.64;98.68;101387.72;4966638;28;20090;-74
2023/09/16 04:22:44;;;;;;;;;;;;;;;14.61;98.89;101387.88;4956379;28;20279;-74
2023/09/16 04:25:09;;;;;;;;;;;;;;;14.61;98.88;101387.88;4971834;28;19917;-74
2023/09/16 04:27:34;;;;;;;;;;;;;;;14.62;99.00;101386.94;4975570;28;20201;-74
2023/09/16 04:30:00;;;;;;;;;;;;;;;14.62;98.89;101388.72;4975453;28;20102;-74
2023/09/16 04:32:25;;;;;;;;;;;;;;;14.60;98.95;101380.88;4972386;28;19925;-74
2023/09/16 04:34:50;;;;;;;;;;;;;;;14.59;98.80;101381.84;4961360;28;20203;-74
2023/09/16 04:37:16;;;;;;;;;;;;;;;14.59;98.70;101387.09;4978889;28;19921;-74
2023/09/16 04:39:42;;;;;;;;;;;;;;;14.57;99.22;101387.19;4975272;28;20226;-74
2023/09/16 04:42:08;;;;;;;;;;;;;;;14.54;98.83;101375.91;4967667;28;19910;-74
2023/09/16 04:44:38;;;;;;;;;;;;;;;14.54;99.09;101375.91;4970222;28;19988;-74
2023/09/16 04:47:03;;;;;;;;;;;;;;;14.54;99.47;101378.53;4977451;28;20277;-74
2023/09/16 04:49:29;;;;;;;;;;;;;;;14.54;99.20;101366.19;4979002;28;20288;-74
2023/09/16 04:51:54;;;;;;;;;;;;;;;14.55;99.44;101372.31;4978869;28;19917;-74
2023/09/16 04:54:19;;;;;;;;;;;;;;;14.54;99.57;101373.25;4979319;28;20113;-74
2023/09/16 04:56:44;;;;;;;;;;;;;;;14.50;99.42;101367.28;4978753;28;20155;-74
2023/09/16 04:59:10;;;;;;;;;;;;;;;14.48;99.44;101371.78;4979366;28;20205;-74
2023/09/16 05:01:35;;;;;;;;;;;;;;;14.47;99.80;101371.84;4964023;28;19918;-74
2023/09/16 05:04:00;;;;;;;;;;;;;;;14.46;99.83;101371.00;4971713;28;20167;-74
2023/09/16 05:06:26;;;;;;;;;;;;;;;14.46;99.72;101367.50;4978917;28;20229;-74
2023/09/16 05:08:54;;;;;;;;;;;;;;;14.44;99.95;101364.94;4978430;28;19922;-74
2023/09/16 05:11:19;;;;;;;;;;;;;;;14.44;99.94;101367.56;4977850;28;19981;-74
2023/09/16 05:13:50;;;;;;;;;;;;;;;14.43;100.00;101373.78;4971588;28;19922;-74
2023/09/16 05:16:15;;;;;;;;;;;;;;;14.40;100.00;101373.91;4963862;28;20009;-74
2023/09/16 05:18:40;;;;;;;;;;;;;;;14.37;100.00;101371.41;4973146;28;19917;-74
2023/09/16 05:21:05;;;;;;;;;;;;;;;14.35;100.00;101374.16;4969159;28;19918;-74
2023/09/16 05:23:33;;;;;;;;;;;;;;;14.34;100.00;101377.69;4965048;28;19961;-74
2023/09/16 05:25:58;;;;;;;;;;;;;;;14.33;100.00;101378.63;4974360;28;19965;-74
2023/09/16 05:28:24;;;;;;;;;;;;;;;14.32;100.00;101378.72;4960957;28;19914;-74
2023/09/16 05:30:49;;;;;;;;;;;;;;;14.31;100.00;101380.47;4963725;28;20156;-74
2023/09/16 05:33:14;;;;;;;;;;;;;;;14.31;100.00;101383.09;4978703;28;19910;-74
2023/09/16 05:35:40;;;;;;;;;;;;;;;14.32;100.00;101378.72;4960789;28;20225;-74
2023/09/16 05:38:06;;;;;;;;;;;;;;;14.31;100.00;101382.25;4971357;28;19918;-74
2023/09/16 05:40:31;;;;;;;;;;;;;;;14.29;100.00;101384.13;4971687;28;20199;-74
2023/09/16 05:42:57;;;;;;;;;;;;;;;14.25;100.00;101382.56;4962675;28;19918;-74
2023/09/16 05:45:22;;;;;;;;;;;;;;;14.22;100.00;101388.81;4960629;28;19918;-74
2023/09/16 05:47:49;;;;;;;;;;;;;;;14.21;100.00;101398.50;4968660;28;19921;-74
2023/09/16 05:50:15;;;;;;;;;;;;;;;14.21;100.00;101392.41;4971129;28;20128;-74
2023/09/16 05:52:40;;;;;;;;;;;;;;;14.20;100.00;101390.66;4973571;28;20087;-74
2023/09/16 05:55:05;;;;;;;;;;;;;;;14.21;100.00;101393.25;4967549;28;19921;-74
2023/09/16 05:57:31;;;;;;;;;;;;;;;14.22;100.00;101391.44;4967207;28;20108;-74
2023/09/16 05:59:56;;;;;;;;;;;;;;;14.23;100.00;101394.97;4959092;28;19914;-74
2023/09/16 06:02:21;;;;;;;;;;;;;;;14.23;100.00;101390.53;4969894;28;19918;-74
2023/09/16 06:04:47;;;;;;;;;;;;;;;14.24;100.00;101394.03;4977410;28;20108;-74
2023/09/16 06:07:12;;;;;;;;;;;;;;;14.26;100.00;101398.31;4958572;28;19923;-74
2023/09/16 06:09:37;;;;;;;;;;;;;;;14.27;100.00;101399.16;4975004;28;20118;-74
2023/09/16 06:12:02;;;;;;;;;;;;;;;14.29;100.00;101398.13;4978033;28;20259;-74
2023/09/16 06:14:28;;;;;;;;;;;;;;;14.31;100.00;101405.97;4965170;28;20166;-74
2023/09/16 06:16:53;;;;;;;;;;;;;;;14.36;100.00;101404.81;4940402;29;19937;-74
2023/09/16 06:19:18;;;;;;;;;;;;;;;14.41;100.00;101420.44;4963913;28;20153;-74
2023/09/16 06:21:43;;;;;;;;;;;;;;;14.46;100.00;101417.56;4973248;28;19966;-74
2023/09/16 06:24:09;;;;;;;;;;;;;;;14.49;100.00;101425.34;4969184;28;19922;-74
2023/09/16 06:26:34;;;;;;;;;;;;;;;14.51;100.00;101426.09;4968392;28;19918;-74
2023/09/16 06:28:59;;;;;;;;;;;;;;;14.56;100.00;101418.84;4968579;28;19918;-74
2023/09/16 06:31:25;;;;;;;;;;;;;;;14.62;100.00;101423.00;4974604;28;20164;-74
2023/09/16 06:33:51;;;;;;;;;;;;;;;14.63;100.00;101417.66;4970083;28;20301;-74
2023/09/16 06:36:18;;;;;;;;;;;;;;;14.68;100.00;101422.69;4970835;28;19911;-74
2023/09/16 06:38:43;;;;;;;;;;;;;;;14.76;100.00;101417.91;4970362;28;19922;-74
2023/09/16 06:41:08;;;;;;;;;;;;;;;14.79;100.00;101420.41;4966167;28;19968;-74
2023/09/16 06:43:34;;;;;;;;;;;;;;;14.87;100.00;101414.75;4967839;28;19922;-74
2023/09/16 06:45:59;;;;;;;;;;;;;;;14.94;100.00;101414.34;4965969;28;19918;-74
2023/09/16 06:48:24;;;;;;;;;;;;;;;14.92;100.00;101418.00;4964628;28;19929;-74
2023/09/16 06:50:50;;;;;;;;;;;;;;;14.99;100.00;101419.41;4965309;28;20274;-74
2023/09/16 06:53:15;;;;;;;;;;;;;;;14.99;100.00;101419.41;4973344;28;19918;-74
2023/09/16 06:55:41;;;;;;;;;;;;;;;15.05;100.00;101424.38;4975920;28;19921;-74
2023/09/16 06:58:07;;;;;;;;;;;;;;;15.10;100.00;101422.34;4969272;28;19922;-74
2023/09/16 07:00:32;;;;;;;;;;;;;;;15.13;100.00;101424.84;4972942;28;20021;-74
2023/09/16 07:02:58;;;;;;;;;;;;;;;15.17;100.00;101425.53;4969452;28;19922;-74
2023/09/16 07:05:24;;;;;;;;;;;;;;;15.21;100.00;101421.81;4973702;28;20100;-74
2023/09/16 07:07:49;;;;;;;;;;;;;;;15.25;100.00;101427.78;4971941;28;19928;-74
2023/09/16 07:10:15;;;;;;;;;;;;;;;15.31;100.00;101427.47;4975974;28;19925;-74
2023/09/16 07:12:40;;;;;;;;;;;;;;;15.35;100.00;101421.97;4972370;28;20251;-74
2023/09/16 07:15:05;;;;;;;;;;;;;;;15.40;100.00;101428.78;4964875;28;19949;-74
2023/09/16 07:17:33;;;;;;;;;;;;;;;15.41;100.00;101427.84;4965596;28;20457;-74
2023/09/16 07:19:58;;;;;;;;;;;;;;;15.47;100.00;101431.03;4966972;28;19928;-74
2023/09/16 07:22:25;;;;;;;;;;;;;;;15.48;100.00;101427.47;4961839;28;19918;-74
2023/09/16 07:24:50;;;;;;;;;;;;;;;15.56;100.00;101421.78;4966952;28;20137;-74
2023/09/16 07:27:17;;;;;;;;;;;;;;;15.63;100.00;101422.31;4964315;28;19918;-74
2023/09/16 07:29:42;;;;;;;;;;;;;;;15.65;100.00;101423.94;4964671;28;19917;-74
2023/09/16 07:32:07;;;;;;;;;;;;;;;15.75;100.00;101424.31;4964622;28;20205;-74
2023/09/16 07:34:33;;;;;;;;;;;;;;;15.83;100.00;101429.22;4964014;28;19917;-74
2023/09/16 07:36:58;;;;;;;;;;;;;;;15.91;100.00;101427.00;4966221;28;19918;-74
2023/09/16 07:39:24;;;;;;;;;;;;;;;15.94;100.00;101426.84;4966360;28;20247;-74
2023/09/16 07:41:49;;;;;;;;;;;;;;;15.97;100.00;101429.34;4962198;28;19925;-74
2023/09/16 07:44:14;;;;;;;;;;;;;;;16.06;100.00;101430.59;4960353;28;19942;-74
2023/09/16 07:46:40;;;;;;;;;;;;;;;16.10;100.00;101432.16;4963104;28;19981;-74
2023/09/16 07:49:05;;;;;;;;;;;;;;;16.15;100.00;101429.25;4961266;28;20229;-74
2023/09/16 07:51:30;;;;;;;;;;;;;;;16.18;100.00;101429.09;4960994;28;19942;-74
2023/09/16 07:53:55;;;;;;;;;;;;;;;16.20;100.00;101433.34;4967574;28;19933;-74
2023/09/16 07:56:21;;;;;;;;;;;;;;;16.21;100.00;101440.34;4963854;28;20005;-74
2023/09/16 07:58:46;;;;;;;;;;;;;;;16.23;100.00;101437.63;4959981;28;20264;-74
2023/09/16 08:01:12;;;;;;;;;;;;;;;16.26;100.00;101437.44;4963972;28;20172;-74
2023/09/16 08:03:42;;;;;;;;;;;;;;;16.29;100.00;101448.69;4965582;28;20157;-74
2023/09/16 08:06:08;;;;;;;;;;;;;;;16.38;100.00;101441.22;4968080;28;19960;-74
2023/09/16 08:08:33;;;;;;;;;;;;;;;16.45;100.00;101447.84;4962276;28;20236;-74
2023/09/16 08:10:58;;;;;;;;;;;;;;;16.45;100.00;101445.22;4971011;28;19916;-74
2023/09/16 08:13:23;;;;;;;;;;;;;;;16.46;100.00;101452.19;4970708;28;20235;-74
2023/09/16 08:15:49;;;;;;;;;;;;;;;16.50;100.00;101454.59;4966152;28;19922;-74
2023/09/16 08:18:14;;;;;;;;;;;;;;;16.51;100.00;101451.00;4974291;28;20091;-74
2023/09/16 08:20:39;;;;;;;;;;;;;;;16.55;100.00;101449.03;4963008;28;20275;-74
2023/09/16 08:23:05;;;;;;;;;;;;;;;16.58;100.00;101445.38;4968370;28;19918;-74
2023/09/16 08:25:30;;;;;;;;;;;;;;;16.64;100.00;101452.94;4974150;28;19924;-74
2023/09/16 08:27:55;;;;;;;;;;;;;;;16.68;100.00;101455.34;4978013;28;20191;-74
2023/09/16 08:30:21;;;;;;;;;;;;;;;16.69;100.00;101453.56;4977642;28;19922;-74
2023/09/16 08:32:46;;;;;;;;;;;;;;;16.71;99.97;101451.66;4969944;28;20020;-74
2023/09/16 08:35:11;;;;;;;;;;;;;;;16.79;99.65;101449.47;4968936;28;19921;-74
2023/09/16 08:37:37;;;;;;;;;;;;;;;16.85;99.66;101453.56;4977123;28;20173;-74
2023/09/16 08:40:03;;;;;;;;;;;;;;;16.91;99.89;101453.22;4970006;28;19981;-74
2023/09/16 08:42:39;;;;;;;;;;;;;;;16.98;99.47;101462.50;4967590;28;19942;-74
2023/09/16 08:45:05;;;;;;;;;;;;;;;17.04;99.37;101462.13;4974536;28;19925;-74
2023/09/16 08:47:39;;;;;;;;;;;;;;;17.11;99.45;101460.00;4968823;28;20033;-74
2023/09/16 08:50:05;;;;;;;;;;;;;;;17.16;99.01;101465.03;4972846;28;19925;-74
2023/09/16 08:52:35;;;;;;;;;;;;;;;17.21;98.50;101465.63;4971769;28;20213;-74
2023/09/16 08:55:01;;;;;;;;;;;;;;;17.27;98.66;101471.38;4973699;28;20207;-74
2023/09/16 08:57:26;;;;;;;;;;;;;;;17.40;97.72;101468.00;4968962;28;19981;-74
2023/09/16 08:59:53;;;;;;;;;;;;;;;17.44;97.59;101473.06;4968623;28;20195;-74
2023/09/16 09:02:18;;;;;;;;;;;;;;;17.51;97.44;101470.03;4971594;28;19929;-74
2023/09/16 09:04:43;;;;;;;;;;;;;;;17.55;97.06;101472.38;4967896;28;20171;-74
2023/09/16 09:07:09;;;;;;;;;;;;;;;17.59;96.91;101476.56;4972882;28;20207;-74
2023/09/16 09:09:35;;;;;;;;;;;;;;;17.70;97.08;101478.56;4973109;28;20177;-74
2023/09/16 09:12:00;;;;;;;;;;;;;;;17.82;96.68;101482.25;4976042;28;19918;-74
2023/09/16 09:14:28;;;;;;;;;;;;;;;17.94;95.87;101484.19;4964850;28;20136;-74
2023/09/16 09:16:56;;;;;;;;;;;;;;;18.06;95.08;101474.63;4975709;28;20345;-74
2023/09/16 09:19:21;;;;;;;;;;;;;;;18.14;94.46;101479.47;4966634;28;19918;-74
2023/09/16 09:21:47;;;;;;;;;;;;;;;18.23;94.52;101481.53;4969288;28;19940;-74
2023/09/16 09:24:12;;;;;;;;;;;;;;;18.33;93.85;101480.00;4977553;28;20152;-74
2023/09/16 09:26:37;;;;;;;;;;;;;;;18.45;91.43;101482.84;4975079;28;20245;-74
2023/09/16 09:29:09;;;;;;;;;;;;;;;18.55;91.28;101479.47;4976136;28;19922;-74
2023/09/16 09:31:34;;;;;;;;;;;;;;;18.61;90.41;101489.72;4967483;28;20120;-74
2023/09/16 09:33:59;;;;;;;;;;;;;;;18.67;90.85;101482.31;4961636;28;19954;-74
2023/09/16 09:36:27;;;;;;;;;;;;;;;18.72;91.00;101480.19;4967572;28;20279;-74
2023/09/16 09:38:55;;;;;;;;;;;;;;;18.82;90.91;101480.50;4968868;28;19957;-74
2023/09/16 09:41:21;;;;;;;;;;;;;;;18.93;88.83;101484.13;4964755;28;19925;-74
2023/09/16 09:43:47;;;;;;;;;;;;;;;19.03;88.65;101495.00;4966026;28;19950;-74
2023/09/16 09:46:13;;;;;;;;;;;;;;;19.10;88.28;101485.69;4965942;28;19985;-74
2023/09/16 09:48:39;;;;;;;;;;;;;;;19.14;87.86;101494.31;4970005;28;19996;-74
2023/09/16 09:51:07;;;;;;;;;;;;;;;19.16;87.69;101493.25;4969156;28;19965;-74
2023/09/16 09:53:33;;;;;;;;;;;;;;;19.26;87.57;101500.59;4970491;28;19924;-74
2023/09/16 09:55:58;;;;;;;;;;;;;;;19.32;86.57;101489.56;4964447;28;19918;-74
2023/09/16 09:58:24;;;;;;;;;;;;;;;19.35;86.90;101492.84;4962255;28;19981;-74
2023/09/16 10:00:50;;;;;;;;;;;;;;;19.42;86.54;101490.63;4971353;28;19925;-74
2023/09/16 10:03:19;;;;;;;;;;;;;;;19.46;85.34;101492.13;4964955;28;19918;-74
2023/09/16 10:05:45;;;;;;;;;;;;;;;19.52;85.69;101496.19;4967291;28;19925;-74
2023/09/16 10:08:10;;;;;;;;;;;;;;;19.59;85.05;101496.59;4964374;28;19922;-74
2023/09/16 10:10:36;;;;;;;;;;;;;;;19.64;83.70;101495.31;4970628;28;20116;-74
2023/09/16 10:13:02;;;;;;;;;;;;;;;19.72;83.79;101489.50;4968674;28;20205;-74
2023/09/16 10:15:33;;;;;;;;;;;;;;;19.83;82.21;101492.28;4972276;28;19917;-74
2023/09/16 10:17:58;;;;;;;;;;;;;;;19.89;81.28;101491.84;4976846;28;20209;-74
2023/09/16 10:20:24;;;;;;;;;;;;;;;19.90;81.19;101488.25;4973116;28;19924;-74
2023/09/16 10:22:50;;;;;;;;;;;;;;;19.97;80.79;101490.47;4971297;28;19969;-74
2023/09/16 10:25:19;;;;;;;;;;;;;;;19.99;80.58;101483.25;4964595;28;19918;-74
2023/09/16 10:27:48;;;;;;;;;;;;;;;20.06;80.92;101487.16;4976369;28;20224;-74
2023/09/16 10:30:13;;;;;;;;;;;;;;;20.13;80.41;101486.63;4965352;28;20189;-74
2023/09/16 10:32:39;;;;;;;;;;;;;;;20.17;80.94;101479.28;4966372;28;19956;-73
2023/09/16 10:35:05;;;;;;;;;;;;;;;20.26;79.40;101478.63;4967799;28;19918;-74
2023/09/16 10:37:31;;;;;;;;;;;;;;;20.34;78.05;101483.41;4967155;28;19984;-74
2023/09/16 10:39:56;;;;;;;;;;;;;;;20.41;78.23;101483.78;4966491;28;20117;-74
2023/09/16 10:42:22;;;;;;;;;;;;;;;20.50;76.49;101485.78;4951230;28;19960;-73
2023/09/16 10:44:48;;;;;;;;;;;;;;;20.56;75.76;101477.38;4973507;28;19918;-73
2023/09/16 10:47:16;;;;;;;;;;;;;;;20.59;76.15;101481.63;4966777;28;19925;-74
2023/09/16 10:49:41;;;;;;;;;;;;;;;20.63;76.41;101478.66;4973139;28;19930;-74
2023/09/16 10:52:08;;;;;;;;;;;;;;;20.71;75.69;101475.44;4972992;28;19949;-74
2023/09/16 10:54:54;;;;;;;;;;;;;;;20.75;76.22;101479.56;4975374;28;20157;-74
2023/09/16 10:57:30;;;;;;;;;;;;;;;20.81;76.56;101472.94;4973771;28;20183;-74
2023/09/16 10:59:56;;;;;;;;;;;;;;;20.87;76.93;101467.19;4971831;28;20029;-74
2023/09/16 11:02:28;;;;;;;;;;;;;;;20.93;76.18;101465.88;4973647;28;20000;-74
2023/09/16 11:04:54;;;;;;;;;;;;;;;20.96;76.39;101460.31;4970531;28;19921;-74
2023/09/16 11:07:19;;;;;;;;;;;;;;;21.00;76.26;101459.97;4965436;28;20320;-74
2023/09/16 11:09:45;;;;;;;;;;;;;;;21.10;75.85;101460.09;4967166;28;19949;-74
2023/09/16 11:12:10;;;;;;;;;;;;;;;21.18;75.20;101459.56;4965457;28;19918;-74
2023/09/16 11:14:36;;;;;;;;;;;;;;;21.22;74.79;101464.50;4964859;28;19933;-74
2023/09/16 11:17:09;;;;;;;;;;;;;;;21.25;74.80;101458.13;4965992;28;19954;-74
2023/09/16 11:19:35;;;;;;;;;;;;;;;21.32;72.18;101454.03;4968029;28;20230;-74
2023/09/16 11:22:02;;;;;;;;;;;;;;;21.36;72.60;101462.63;4963585;28;19918;-74
2023/09/16 11:24:27;;;;;;;;;;;;;;;21.37;73.11;101456.31;4963893;28;20236;-74
2023/09/16 11:26:52;;;;;;;;;;;;;;;21.41;73.25;101441.78;4962630;28;20218;-74
2023/09/16 11:29:21;;;;;;;;;;;;;;;21.44;71.79;101453.06;4967472;28;20116;-74
2023/09/16 11:31:46;;;;;;;;;;;;;;;21.46;72.16;101452.97;4964648;28;20224;-73
2023/09/16 11:34:14;;;;;;;;;;;;;;;21.46;71.89;101448.50;4964452;28;20244;-74
2023/09/16 11:36:46;;;;;;;;;;;;;;;21.52;71.73;101441.00;4962941;28;19914;-74
2023/09/16 11:39:11;;;;;;;;;;;;;;;21.50;72.41;101441.09;4961615;28;19988;-74
2023/09/16 11:41:36;;;;;;;;;;;;;;;21.53;72.24;101440.88;4961477;28;19922;-74
2023/09/16 11:44:02;;;;;;;;;;;;;;;21.58;72.67;101438.72;4968096;28;20213;-74
2023/09/16 11:46:29;;;;;;;;;;;;;;;21.58;72.03;101433.38;4965538;28;19921;-74
2023/09/16 11:48:55;;;;;;;;;;;;;;;21.64;71.90;101448.03;4972930;28;19981;-74
2023/09/16 11:51:21;;;;;;;;;;;;;;;21.69;71.46;101442.38;4966916;28;19909;-74
2023/09/16 11:53:47;;;;;;;;;;;;;;;21.73;70.53;101436.66;4970259;28;19918;-74
2023/09/16 11:56:13;;;;;;;;;;;;;;;21.76;68.29;101435.59;4974525;28;19921;-74
2023/09/16 11:58:39;;;;;;;;;;;;;;;21.78;67.27;101433.66;4962978;28;20376;-74
2023/09/16 12:01:05;;;;;;;;;;;;;;;21.79;67.12;101443.31;4959349;28;20211;-73
2023/09/16 12:03:30;;;;;;;;;;;;;;;21.85;67.52;101435.69;4965649;28;19949;-73
2023/09/16 12:05:57;;;;;;;;;;;;;;;21.91;66.46;101434.34;4967367;28;19921;-74
2023/09/16 12:08:23;;;;;;;;;;;;;;;21.95;66.16;101435.81;4968106;28;19932;-74
2023/09/16 12:10:49;;;;;;;;;;;;;;;21.97;66.47;101433.84;4969554;28;20144;-74
2023/09/16 12:13:25;;;;;;;;;;;;;;;21.99;65.51;101437.28;4964796;28;19922;-74
2023/09/16 12:15:50;;;;;;;;;;;;;;;22.00;63.63;101433.63;4958538;28;20449;-73
2023/09/16 12:18:15;;;;;;;;;;;;;;;22.01;64.30;101431.78;4968956;28;19918;-74
2023/09/16 12:20:41;;;;;;;;;;;;;;;22.03;64.65;101436.06;4966358;28;19917;-74
2023/09/16 12:23:07;;;;;;;;;;;;;;;22.01;65.13;101434.47;4963405;28;19968;-74
2023/09/16 12:25:38;;;;;;;;;;;;;;;22.04;61.36;101431.56;4966857;28;20129;-74